Time;durP1;ratioP1;P1;durP2;ratioP2;P2;SDS_P1;SDS_P2;PMS_P1;PMS_P2;Temp;Humidity;BMP_temperature;BMP_pressure;BME280_temperature;BME280_humidity;BME280_pressure;Samples;Min_cycle;Max_cycle;Signal;HPM_P1;HPM_P2
2022/09/20 00:00:46;;;;;;;;;;;;;;;25.70;41.45;94655.13;5021255;28;7453;-60
2022/09/20 00:03:25;;;;;;;;;;;;;;;25.68;41.50;94657.66;5016894;28;6991;-60
2022/09/20 00:06:14;;;;;;;;;;;;;;;25.68;41.89;94654.91;5027770;28;7248;-60
2022/09/20 00:08:53;;;;;;;;;;;;;;;25.68;42.07;94649.38;5015547;28;7829;-60
2022/09/20 00:11:25;;;;;;;;;;;;;;;25.68;42.23;94652.13;5016785;28;9079;-60
2022/09/20 00:13:54;;;;;;;;;;;;;;;25.68;41.83;94652.13;5024248;28;6962;-60
2022/09/20 00:16:37;;;;;;;;;;;;;;;25.67;41.67;94647.13;5006830;28;7271;-60
2022/09/20 00:19:07;;;;;;;;;;;;;;;25.66;42.22;94651.91;5015198;28;8987;-60
2022/09/20 00:21:38;;;;;;;;;;;;;;;25.66;41.36;94648.38;5018972;28;9060;-60
2022/09/20 00:24:09;;;;;;;;;;;;;;;25.65;41.54;94649.63;5020777;28;8114;-60
2022/09/20 00:26:44;;;;;;;;;;;;;;;25.63;41.66;94647.38;5015960;28;9470;-60
2022/09/20 00:29:12;;;;;;;;;;;;;;;25.62;41.70;94651.38;5021117;28;6995;-60
2022/09/20 00:31:44;;;;;;;;;;;;;;;25.62;42.19;94651.38;5023384;28;6994;-60
2022/09/20 00:36:57;;;;;;;;;;;;;;;25.62;41.39;94648.63;5042045;28;7466;-59
2022/09/20 00:39:23;;;;;;;;;;;;;;;25.61;41.17;94638.13;5049328;28;6994;-60
2022/09/20 00:41:49;;;;;;;;;;;;;;;25.61;41.38;94640.88;5048880;28;7007;-60
2022/09/20 00:44:44;;;;;;;;;;;;;;;25.61;41.07;94638.88;5061316;28;7350;-59
2022/09/20 00:47:32;;;;;;;;;;;;;;;25.61;41.98;94636.13;5065942;28;8607;-60
2022/09/20 00:50:32;;;;;;;;;;;;;;;25.58;41.76;94626.09;5062178;28;7253;-60
2022/09/20 00:53:00;;;;;;;;;;;;;;;25.61;41.31;94627.84;5064370;28;9078;-59
2022/09/20 00:55:33;;;;;;;;;;;;;;;25.61;41.56;94629.84;5060110;28;6959;-60
2022/09/20 00:58:03;;;;;;;;;;;;;;;25.59;41.70;94624.88;5045226;28;8004;-60
2022/09/20 01:00:31;;;;;;;;;;;;;;;25.59;41.45;94621.34;5062828;28;7163;-60
2022/09/20 01:03:05;;;;;;;;;;;;;;;25.60;40.78;94618.09;5067803;28;7574;-60
2022/09/20 01:05:35;;;;;;;;;;;;;;;25.59;41.56;94613.09;5048326;28;7331;-60
2022/09/20 01:08:05;;;;;;;;;;;;;;;25.60;41.28;94611.84;5053423;28;7078;-60
2022/09/20 01:10:41;;;;;;;;;;;;;;;25.59;41.47;94613.84;5062559;28;7260;-60
2022/09/20 01:13:16;;;;;;;;;;;;;;;25.58;41.07;94609.59;5066094;28;7190;-60
2022/09/20 01:15:47;;;;;;;;;;;;;;;25.57;41.26;94612.84;5061915;28;7394;-60
2022/09/20 01:18:24;;;;;;;;;;;;;;;25.58;41.34;94606.09;5053038;28;7001;-60
2022/09/20 01:20:54;;;;;;;;;;;;;;;25.56;41.14;94609.34;5060272;28;7710;-60
2022/09/20 01:23:46;;;;;;;;;;;;;;;25.56;41.81;94609.34;5044380;28;7228;-60
2022/09/20 01:26:32;;;;;;;;;;;;;;;25.58;41.17;94619.88;5057997;28;7359;-60
2022/09/20 01:29:16;;;;;;;;;;;;;;;25.58;41.10;94615.09;5041971;28;8950;-60
2022/09/20 01:31:52;;;;;;;;;;;;;;;25.56;41.41;94617.59;5052254;28;6992;-60
2022/09/20 01:34:46;;;;;;;;;;;;;;;25.55;41.12;94612.59;5059742;28;7343;-59
2022/09/20 01:37:43;;;;;;;;;;;;;;;25.53;40.98;94604.84;5041214;28;7235;-60
2022/09/20 01:40:16;;;;;;;;;;;;;;;25.54;41.19;94606.34;5060370;28;7060;-60
2022/09/20 01:42:57;;;;;;;;;;;;;;;25.54;40.83;94608.34;5054931;28;9206;-60
2022/09/20 01:45:31;;;;;;;;;;;;;;;25.52;40.82;94608.84;5047734;28;7901;-59
2022/09/20 01:48:14;;;;;;;;;;;;;;;25.51;41.31;94607.38;5060541;28;7064;-60
2022/09/20 01:51:16;;;;;;;;;;;;;;;25.51;40.79;94601.09;5063164;28;7475;-60
2022/09/20 01:54:06;;;;;;;;;;;;;;;25.50;40.71;94605.84;5058985;28;7381;-60
2022/09/20 01:57:03;;;;;;;;;;;;;;;25.50;40.75;94605.09;5063648;28;7419;-60
2022/09/20 01:59:32;;;;;;;;;;;;;;;25.50;40.79;94602.34;5062564;28;7125;-60
2022/09/20 02:02:14;;;;;;;;;;;;;;;25.50;40.97;94605.09;5061366;28;7262;-60
2022/09/20 02:05:11;;;;;;;;;;;;;;;25.49;41.66;94607.09;5059434;28;7308;-59
2022/09/20 02:07:55;;;;;;;;;;;;;;;25.47;40.94;94595.84;5048377;28;7204;-60
2022/09/20 02:10:36;;;;;;;;;;;;;;;25.49;41.37;94598.84;5044176;28;9494;-60
2022/09/20 02:13:17;;;;;;;;;;;;;;;25.47;41.43;94606.13;5062411;28;7252;-59
2022/09/20 02:16:06;;;;;;;;;;;;;;;25.48;40.71;94607.59;5061573;28;7260;-60
2022/09/20 02:18:53;;;;;;;;;;;;;;;25.47;41.51;94612.34;5057269;28;7225;-59
2022/09/20 02:21:56;;;;;;;;;;;;;;;25.44;41.16;94605.13;5053837;28;7330;-60
2022/09/20 02:24:37;;;;;;;;;;;;;;;25.45;41.34;94614.16;5058406;28;7082;-60
2022/09/20 02:27:41;;;;;;;;;;;;;;;25.43;40.97;94609.88;5043589;28;8556;-59
2022/09/20 02:30:24;;;;;;;;;;;;;;;25.45;41.12;94608.63;5062026;28;7258;-60
2022/09/20 02:33:05;;;;;;;;;;;;;;;25.46;40.79;94615.63;5059179;28;6991;-59
2022/09/20 02:35:42;;;;;;;;;;;;;;;25.44;41.22;94618.91;5061195;28;7236;-59
2022/09/20 02:38:17;;;;;;;;;;;;;;;25.45;41.04;94612.13;5047031;28;7252;-59
2022/09/20 02:40:58;;;;;;;;;;;;;;;25.43;41.25;94607.13;5065320;28;8681;-60
2022/09/20 02:43:37;;;;;;;;;;;;;;;25.43;41.20;94609.13;5066728;28;7782;-60
2022/09/20 02:46:50;;;;;;;;;;;;;;;25.41;40.39;94615.13;5058502;28;7299;-60
2022/09/20 02:49:45;;;;;;;;;;;;;;;25.41;41.25;94611.59;4984470;28;7401;-60
2022/09/20 02:52:29;;;;;;;;;;;;;;;25.40;40.98;94610.84;5013029;28;7183;-60
2022/09/20 02:55:18;;;;;;;;;;;;;;;25.41;40.54;94611.59;5018379;28;7723;-60
2022/09/20 02:58:19;;;;;;;;;;;;;;;25.41;41.44;94619.88;5002982;28;9436;-60
2022/09/20 03:01:13;;;;;;;;;;;;;;;25.39;40.92;94623.13;4958451;28;7275;-60
2022/09/20 03:03:57;;;;;;;;;;;;;;;25.37;40.32;94625.63;4911198;29;8499;-60
2022/09/20 03:06:32;;;;;;;;;;;;;;;25.38;40.63;94623.63;4910788;29;7417;-60
2022/09/20 03:09:26;;;;;;;;;;;;;;;25.38;40.93;94627.13;4909238;29;7076;-60
2022/09/20 03:12:13;;;;;;;;;;;;;;;25.39;40.41;94633.38;4910115;29;7304;-60
2022/09/20 03:15:04;;;;;;;;;;;;;;;25.36;40.77;94635.13;4907572;29;7258;-60
2022/09/20 03:18:14;;;;;;;;;;;;;;;25.38;40.71;94634.66;4909298;29;7635;-60
2022/09/20 03:21:02;;;;;;;;;;;;;;;25.37;40.85;94633.13;4911055;29;7332;-60
2022/09/20 03:24:06;;;;;;;;;;;;;;;25.37;41.13;94633.13;4911134;29;7207;-60
2022/09/20 03:27:15;;;;;;;;;;;;;;;25.36;41.04;94640.66;4925949;29;7219;-60
2022/09/20 03:33:06;;;;;;;;;;;;;;;25.33;40.92;94641.66;4949959;28;10488;-60
2022/09/20 03:35:40;;;;;;;;;;;;;;;25.34;40.31;94639.66;4943325;28;8230;-60
2022/09/20 03:38:17;;;;;;;;;;;;;;;25.33;40.25;94640.91;4962666;28;7561;-60
2022/09/20 03:41:04;;;;;;;;;;;;;;;25.33;40.38;94635.41;4972056;28;7248;-59
2022/09/20 03:44:03;;;;;;;;;;;;;;;25.32;40.87;94637.41;4987381;28;7236;-60
2022/09/20 03:46:47;;;;;;;;;;;;;;;25.34;40.92;94636.88;5000336;28;9073;-59
2022/09/20 03:49:50;;;;;;;;;;;;;;;25.32;40.68;94634.66;4982918;28;7353;-60
2022/09/20 03:52:52;;;;;;;;;;;;;;;25.33;41.03;94632.66;5003228;28;8877;-60
2022/09/20 03:55:37;;;;;;;;;;;;;;;25.31;40.41;94637.91;4989261;28;7252;-60
2022/09/20 03:58:23;;;;;;;;;;;;;;;25.30;40.86;94628.13;4999897;28;6920;-60
2022/09/20 04:01:13;;;;;;;;;;;;;;;25.31;40.62;94624.16;5003256;28;9285;-60
2022/09/20 04:04:18;;;;;;;;;;;;;;;25.28;40.71;94628.66;5054373;28;7020;-60
2022/09/20 04:06:58;;;;;;;;;;;;;;;25.28;40.28;94628.66;5052939;28;8822;-60
2022/09/20 04:09:32;;;;;;;;;;;;;;;25.27;41.15;94618.88;5066027;28;7422;-60
2022/09/20 04:12:23;;;;;;;;;;;;;;;25.28;40.47;94623.16;5061478;28;7333;-60
2022/09/20 04:15:17;;;;;;;;;;;;;;;25.27;40.40;94618.16;5059727;28;7241;-60
2022/09/20 04:17:57;;;;;;;;;;;;;;;25.26;39.97;94620.16;5063409;28;9545;-60
2022/09/20 04:20:37;;;;;;;;;;;;;;;25.26;40.62;94624.91;5065707;28;9063;-60
2022/09/20 04:23:44;;;;;;;;;;;;;;;25.25;40.90;94623.41;5049950;28;7036;-60
2022/09/20 04:26:50;;;;;;;;;;;;;;;25.25;40.81;94626.16;5080235;28;7365;-60
2022/09/20 04:29:22;;;;;;;;;;;;;;;25.25;40.13;94623.41;5025899;28;9090;-60
2022/09/20 04:32:06;;;;;;;;;;;;;;;25.25;40.03;94632.41;5022696;28;9316;-59
2022/09/20 04:37:38;;;;;;;;;;;;;;;25.17;40.70;94623.16;5020947;28;7556;-59
2022/09/20 04:40:19;;;;;;;;;;;;;;;25.18;40.42;94618.41;5017855;28;7225;-60
2022/09/20 04:43:31;;;;;;;;;;;;;;;25.21;40.33;94620.13;5039134;28;7244;-60
2022/09/20 04:46:41;;;;;;;;;;;;;;;25.19;40.44;94631.66;4979194;28;9267;-60
2022/09/20 04:49:55;;;;;;;;;;;;;;;25.19;39.92;94636.41;4926373;29;7258;-60
2022/09/20 04:52:42;;;;;;;;;;;;;;;25.19;40.65;94642.66;4921506;29;7160;-60
2022/09/20 04:55:34;;;;;;;;;;;;;;;25.19;39.84;94641.91;4914078;29;7378;-59
2022/09/20 04:58:36;;;;;;;;;;;;;;;25.20;41.03;94648.94;4905249;29;7077;-59
2022/09/20 05:01:15;;;;;;;;;;;;;;;25.16;41.03;94643.69;4923338;29;9300;-60
2022/09/20 05:04:11;;;;;;;;;;;;;;;25.14;41.14;94656.44;4926936;29;6945;-58
2022/09/20 05:06:57;;;;;;;;;;;;;;;25.13;41.10;94650.19;4946839;28;9299;-59
2022/09/20 05:10:10;;;;;;;;;;;;;;;25.11;41.26;94654.69;4943542;28;8864;-59
2022/09/20 05:13:04;;;;;;;;;;;;;;;25.13;39.97;94654.94;4951192;28;8827;-60
2022/09/20 05:15:40;;;;;;;;;;;;;;;25.12;40.26;94654.19;4947082;28;7566;-59
2022/09/20 05:18:17;;;;;;;;;;;;;;;25.12;40.79;94658.97;4944421;28;8506;-60
2022/09/20 05:20:50;;;;;;;;;;;;;;;25.10;40.18;94656.69;4941863;28;7155;-60
2022/09/20 05:23:42;;;;;;;;;;;;;;;25.10;39.92;94661.47;4978790;28;9143;-59
2022/09/20 05:26:30;;;;;;;;;;;;;;;25.09;41.16;94659.94;5050353;28;9619;-59
2022/09/20 05:29:15;;;;;;;;;;;;;;;25.08;41.03;94669.44;5068176;28;7232;-59
2022/09/20 05:32:21;;;;;;;;;;;;;;;25.10;39.91;94666.97;5058610;28;7878;-59
2022/09/20 05:35:01;;;;;;;;;;;;;;;25.09;40.38;94671.72;4988731;28;9799;-60
2022/09/20 05:37:45;;;;;;;;;;;;;;;25.08;44.23;94664.69;4998777;28;8097;-60
2022/09/20 05:40:28;;;;;;;;;;;;;;;25.07;43.39;94665.22;4967028;28;7805;-59
2022/09/20 05:43:02;;;;;;;;;;;;;;;25.08;41.14;94674.94;4970097;28;7266;-60
2022/09/20 05:45:55;;;;;;;;;;;;;;;25.07;40.28;94670.72;4981530;28;8184;-60
2022/09/20 05:48:51;;;;;;;;;;;;;;;25.08;40.33;94672.19;4982908;28;7007;-60
2022/09/20 05:51:53;;;;;;;;;;;;;;;25.08;41.19;94672.19;4993368;28;7186;-60
2022/09/20 05:54:46;;;;;;;;;;;;;;;25.07;40.25;94676.97;4981831;28;7021;-60
2022/09/20 05:57:41;;;;;;;;;;;;;;;25.05;40.12;94671.22;5000032;28;7266;-61
2022/09/20 06:00:34;;;;;;;;;;;;;;;25.04;39.98;94677.97;4984438;28;8973;-60
2022/09/20 06:03:21;;;;;;;;;;;;;;;25.06;39.65;94677.44;4997820;28;6949;-60
2022/09/20 06:06:12;;;;;;;;;;;;;;;25.06;39.99;94685.72;4985176;28;9555;-60
2022/09/20 06:08:50;;;;;;;;;;;;;;;25.03;40.48;94684.72;4983605;28;7943;-60
2022/09/20 06:11:40;;;;;;;;;;;;;;;25.03;40.26;94681.97;5054671;28;7388;-60
2022/09/20 06:14:49;;;;;;;;;;;;;;;25.02;39.69;94680.47;5066083;28;9044;-60
2022/09/20 06:17:37;;;;;;;;;;;;;;;25.03;39.96;94683.97;5001061;28;7096;-60
2022/09/20 06:20:24;;;;;;;;;;;;;;;25.02;39.93;94683.22;5009183;28;7403;-60
2022/09/20 06:22:54;;;;;;;;;;;;;;;25.01;39.87;94680.97;5002811;28;9411;-60
2022/09/20 06:25:54;;;;;;;;;;;;;;;25.02;40.71;94688.72;4993876;28;7304;-59
2022/09/20 06:28:50;;;;;;;;;;;;;;;25.01;40.96;94687.19;4996962;28;7723;-59
2022/09/20 06:31:18;;;;;;;;;;;;;;;25.03;40.89;94690.22;4928755;28;7190;-60
2022/09/20 06:33:54;;;;;;;;;;;;;;;25.05;40.93;94689.72;4955513;28;7300;-59
2022/09/20 06:42:13;;;;;;;;;;;;;;;25.04;40.54;94694.47;4919961;29;8605;-60
2022/09/20 06:44:40;;;;;;;;;;;;;;;25.03;40.78;94695.75;4919690;29;9293;-60
2022/09/20 06:47:31;;;;;;;;;;;;;;;25.02;41.23;94696.22;4909399;29;7266;-60
2022/09/20 06:49:58;;;;;;;;;;;;;;;25.00;40.53;94696.72;4916453;29;8289;-60
2022/09/20 06:52:34;;;;;;;;;;;;;;;24.99;40.70;94695.22;4925510;28;7262;-60
2022/09/20 06:55:06;;;;;;;;;;;;;;;25.00;40.63;94695.97;4946892;28;7671;-60
2022/09/20 06:57:47;;;;;;;;;;;;;;;24.99;40.28;94689.72;4930582;28;7170;-60
2022/09/20 07:00:29;;;;;;;;;;;;;;;24.97;40.53;94697.72;4944248;28;7276;-60
2022/09/20 07:02:56;;;;;;;;;;;;;;;24.98;40.78;94698.47;4943313;28;8573;-60
2022/09/20 07:05:25;;;;;;;;;;;;;;;24.98;40.66;94701.22;4945890;28;7283;-59
2022/09/20 07:08:06;;;;;;;;;;;;;;;24.99;40.76;94694.47;4978750;28;7260;-59
2022/09/20 07:10:47;;;;;;;;;;;;;;;24.99;40.50;94702.75;5007799;28;7524;-60
2022/09/20 07:13:14;;;;;;;;;;;;;;;24.99;40.48;94702.75;5006957;28;9275;-60
2022/09/20 07:15:48;;;;;;;;;;;;;;;24.98;40.52;94701.22;5029221;28;7320;-60
2022/09/20 07:18:13;;;;;;;;;;;;;;;24.94;41.29;94701.47;5066249;28;7154;-60
2022/09/20 07:20:41;;;;;;;;;;;;;;;24.94;41.10;94706.97;5059732;28;7194;-60
2022/09/20 07:23:18;;;;;;;;;;;;;;;24.93;40.55;94702.72;5076138;28;7086;-60
2022/09/20 07:25:47;;;;;;;;;;;;;;;24.95;40.81;94704.97;5058441;28;7106;-60
2022/09/20 07:28:13;;;;;;;;;;;;;;;24.95;40.73;94707.72;5060187;28;7248;-60
2022/09/20 07:30:42;;;;;;;;;;;;;;;24.96;41.34;94707.22;5040360;28;7118;-60
2022/09/20 07:33:09;;;;;;;;;;;;;;;24.97;41.21;94713.50;5058972;28;7058;-60
2022/09/20 07:35:37;;;;;;;;;;;;;;;24.96;41.32;94709.22;5042810;28;7246;-60
2022/09/20 07:38:03;;;;;;;;;;;;;;;24.95;41.24;94705.72;5049109;28;7578;-60
2022/09/20 07:40:31;;;;;;;;;;;;;;;24.95;40.93;94702.22;5060881;28;9115;-60
2022/09/20 07:43:00;;;;;;;;;;;;;;;24.96;41.50;94707.22;5057809;28;7387;-60
2022/09/20 07:45:29;;;;;;;;;;;;;;;24.96;41.66;94715.50;5042633;28;7020;-60
2022/09/20 07:48:08;;;;;;;;;;;;;;;24.93;41.21;94719.22;5080237;28;7227;-60
2022/09/20 07:50:36;;;;;;;;;;;;;;;24.96;41.45;94718.25;5045168;28;9214;-60
2022/09/20 07:53:03;;;;;;;;;;;;;;;24.96;40.64;94721.00;5064058;28;7577;-60
2022/09/20 07:55:31;;;;;;;;;;;;;;;24.97;41.15;94722.47;5062051;28;7374;-60
2022/09/20 07:58:07;;;;;;;;;;;;;;;24.98;41.04;94726.00;5059256;28;7243;-60
2022/09/20 08:00:35;;;;;;;;;;;;;;;24.96;41.00;94723.75;5045591;28;7224;-60
2022/09/20 08:03:11;;;;;;;;;;;;;;;24.95;41.41;94722.22;5053750;28;7238;-60
2022/09/20 08:05:42;;;;;;;;;;;;;;;24.97;41.11;94724.50;5066620;28;7040;-61
2022/09/20 08:08:10;;;;;;;;;;;;;;;24.97;41.67;94727.25;5034978;28;9529;-60
2022/09/20 08:10:48;;;;;;;;;;;;;;;24.97;41.16;94733.50;5051190;28;7242;-59
2022/09/20 08:13:17;;;;;;;;;;;;;;;24.96;40.95;94722.97;5055908;28;7200;-60
2022/09/20 08:15:43;;;;;;;;;;;;;;;24.97;41.13;94736.25;5047194;28;7222;-59
2022/09/20 08:18:21;;;;;;;;;;;;;;;24.98;41.14;94734.25;5065233;28;7281;-59
2022/09/20 08:20:47;;;;;;;;;;;;;;;24.97;41.11;94741.75;5058198;28;9790;-60
2022/09/20 08:23:13;;;;;;;;;;;;;;;24.98;41.14;94737.00;5058330;28;7208;-60
2022/09/20 08:25:43;;;;;;;;;;;;;;;24.98;41.93;94739.75;5060808;28;7221;-60
2022/09/20 08:28:14;;;;;;;;;;;;;;;25.00;41.63;94737.25;5064355;28;9377;-60
2022/09/20 08:30:40;;;;;;;;;;;;;;;25.00;40.94;94740.00;5043878;28;8901;-60
2022/09/20 08:33:06;;;;;;;;;;;;;;;24.99;41.06;94739.25;5054100;28;7138;-61
2022/09/20 08:35:37;;;;;;;;;;;;;;;24.96;41.19;94743.00;5042047;28;7004;-60
2022/09/20 08:38:06;;;;;;;;;;;;;;;24.98;41.27;94743.25;5068403;28;7959;-60
2022/09/20 08:40:39;;;;;;;;;;;;;;;24.99;41.70;94738.50;5057640;28;7237;-60
2022/09/20 08:43:11;;;;;;;;;;;;;;;24.99;41.49;94742.00;5059732;28;8362;-60
2022/09/20 08:45:40;;;;;;;;;;;;;;;25.01;41.74;94745.00;5042076;28;7057;-60
2022/09/20 08:48:17;;;;;;;;;;;;;;;25.01;40.92;94747.03;5057234;28;8078;-60
2022/09/20 08:50:45;;;;;;;;;;;;;;;25.02;41.72;94743.75;5076857;28;7419;-61
2022/09/20 08:53:14;;;;;;;;;;;;;;;25.02;42.01;94743.75;5065949;28;7126;-61
2022/09/20 08:55:42;;;;;;;;;;;;;;;25.03;41.69;94748.03;5060327;28;9419;-60
2022/09/20 08:58:13;;;;;;;;;;;;;;;25.02;41.88;94752.00;5053795;28;7442;-59
2022/09/20 09:00:46;;;;;;;;;;;;;;;25.01;41.77;94742.25;5062018;28;6918;-60
2022/09/20 09:03:17;;;;;;;;;;;;;;;25.02;41.90;94734.75;5044550;28;7284;-60
2022/09/20 09:05:47;;;;;;;;;;;;;;;25.02;42.13;94743.75;5041941;28;7708;-60
2022/09/20 09:08:20;;;;;;;;;;;;;;;25.02;42.22;94743.75;5076790;28;7262;-60
2022/09/20 09:10:52;;;;;;;;;;;;;;;25.02;41.73;94752.00;5062063;28;7158;-60
2022/09/20 09:13:54;;;;;;;;;;;;;;;25.02;41.44;94743.75;5059376;28;8179;-61
2022/09/20 09:16:28;;;;;;;;;;;;;;;25.02;42.02;94732.75;5063981;28;7406;-60
2022/09/20 09:18:54;;;;;;;;;;;;;;;25.05;41.54;94736.50;5065027;28;7754;-61
2022/09/20 09:21:31;;;;;;;;;;;;;;;25.04;42.15;94735.00;5049693;28;7440;-61
2022/09/20 09:24:19;;;;;;;;;;;;;;;25.04;41.55;94730.25;5079236;28;8447;-61
2022/09/20 09:26:47;;;;;;;;;;;;;;;25.03;42.05;94728.75;5062872;28;7160;-60
2022/09/20 09:29:20;;;;;;;;;;;;;;;25.04;41.50;94749.50;5049093;28;7663;-60
2022/09/20 09:31:53;;;;;;;;;;;;;;;25.04;41.96;94729.50;5043678;28;7046;-60
2022/09/20 09:34:24;;;;;;;;;;;;;;;25.04;42.15;94730.25;5063773;28;7671;-60
2022/09/20 09:36:53;;;;;;;;;;;;;;;25.07;41.94;94728.50;5045323;28;7021;-60
2022/09/20 09:39:29;;;;;;;;;;;;;;;25.07;42.45;94728.50;5046251;28;9595;-60
2022/09/20 09:41:59;;;;;;;;;;;;;;;25.06;41.82;94725.00;5080871;28;7558;-60
2022/09/20 09:44:36;;;;;;;;;;;;;;;25.05;42.16;94725.50;5046167;28;9134;-60
2022/09/20 09:47:03;;;;;;;;;;;;;;;25.05;42.13;94718.00;5043385;28;7982;-59
2022/09/20 09:49:34;;;;;;;;;;;;;;;25.09;42.40;94726.00;5046525;28;6988;-59
2022/09/20 09:52:23;;;;;;;;;;;;;;;25.08;42.09;94717.00;5076227;28;7238;-60
2022/09/20 09:54:58;;;;;;;;;;;;;;;25.11;41.72;94729.00;5073592;28;7372;-59
2022/09/20 09:57:50;;;;;;;;;;;;;;;25.10;41.62;94725.50;5064319;28;9303;-60
2022/09/20 10:00:20;;;;;;;;;;;;;;;25.11;42.24;94715.25;5058884;28;8616;-59
2022/09/20 10:03:31;;;;;;;;;;;;;;;25.11;41.90;94718.00;5059129;28;7253;-60
2022/09/20 10:06:53;;;;;;;;;;;;;;;25.12;42.35;94719.50;5063809;28;8486;-59
2022/09/20 10:09:50;;;;;;;;;;;;;;;25.13;41.57;94715.50;5012292;28;7157;-59
2022/09/20 10:12:31;;;;;;;;;;;;;;;25.11;42.30;94705.00;5004810;28;7037;-60
2022/09/20 10:15:06;;;;;;;;;;;;;;;25.13;41.69;94710.75;5028872;28;7256;-60
2022/09/20 10:17:48;;;;;;;;;;;;;;;25.14;42.14;94712.22;5030311;28;7092;-60
2022/09/20 10:20:42;;;;;;;;;;;;;;;25.15;42.50;94713.00;5024745;28;8066;-60
2022/09/20 10:23:18;;;;;;;;;;;;;;;25.16;41.56;94703.50;5028789;28;9443;-60
2022/09/20 10:26:09;;;;;;;;;;;;;;;25.16;41.83;94703.50;5026944;28;7260;-60
2022/09/20 10:29:05;;;;;;;;;;;;;;;25.17;41.58;94704.97;5021331;28;7210;-60
2022/09/20 10:32:30;;;;;;;;;;;;;;;25.19;41.39;94708.75;5044205;28;7067;-60
2022/09/20 10:35:34;;;;;;;;;;;;;;;25.21;41.36;94708.22;5007934;28;9111;-60
2022/09/20 10:38:14;;;;;;;;;;;;;;;25.19;41.50;94708.75;4989885;28;7237;-59
2022/09/20 10:44:50;;;;;;;;;;;;;;;25.20;41.97;94704.75;4988943;28;7213;-60
2022/09/20 10:47:33;;;;;;;;;;;;;;;25.21;41.40;94703.47;4952929;28;7291;-60
2022/09/20 10:50:03;;;;;;;;;;;;;;;25.22;41.43;94709.75;4944893;28;7309;-60
2022/09/20 10:52:50;;;;;;;;;;;;;;;25.24;41.72;94710.00;4968119;28;7181;-59
2022/09/20 10:56:04;;;;;;;;;;;;;;;25.25;41.98;94708.75;4952725;28;7906;-60
2022/09/20 10:58:58;;;;;;;;;;;;;;;25.24;41.78;94702.50;4904782;29;7314;-59
2022/09/20 11:01:53;;;;;;;;;;;;;;;25.26;41.95;94699.22;4900911;29;8074;-60
2022/09/20 11:04:47;;;;;;;;;;;;;;;25.28;41.16;94699.47;4887680;29;7312;-60
2022/09/20 11:07:39;;;;;;;;;;;;;;;25.28;41.83;94693.97;4933245;28;7301;-60
2022/09/20 11:10:41;;;;;;;;;;;;;;;25.31;41.99;94704.00;4885356;29;7370;-60
2022/09/20 11:13:39;;;;;;;;;;;;;;;25.32;41.17;94694.47;4899095;29;7449;-59
2022/09/20 11:16:27;;;;;;;;;;;;;;;25.33;41.83;94707.75;4885506;29;7328;-59
2022/09/20 11:19:47;;;;;;;;;;;;;;;25.32;41.00;94697.97;4901004;29;9394;-60
2022/09/20 11:22:31;;;;;;;;;;;;;;;25.29;41.56;94698.97;4882964;29;6991;-60
2022/09/20 11:24:59;;;;;;;;;;;;;;;25.29;40.50;94701.00;4924035;29;7270;-59
2022/09/20 11:27:57;;;;;;;;;;;;;;;25.28;40.54;94693.97;4930534;28;8785;-60
2022/09/20 11:30:42;;;;;;;;;;;;;;;25.31;39.85;94698.47;4930436;29;6985;-60
2022/09/20 11:33:31;;;;;;;;;;;;;;;25.34;39.72;94697.47;4929244;28;7491;-60
2022/09/20 11:36:03;;;;;;;;;;;;;;;25.34;40.72;94694.72;4953470;28;7492;-60
2022/09/20 11:38:39;;;;;;;;;;;;;;;25.35;40.95;94699.72;4959877;28;9439;-60
2022/09/20 11:41:13;;;;;;;;;;;;;;;25.38;40.96;94695.97;4964118;28;7216;-60
2022/09/20 11:43:44;;;;;;;;;;;;;;;25.39;40.75;94699.47;4962638;28;7214;-59
2022/09/20 11:46:20;;;;;;;;;;;;;;;25.40;40.17;94701.00;4963042;28;7336;-60
2022/09/20 11:48:59;;;;;;;;;;;;;;;25.40;40.89;94693.44;4955407;28;7434;-60
2022/09/20 11:52:03;;;;;;;;;;;;;;;25.44;40.55;94696.00;4996113;28;7101;-60
2022/09/20 11:55:05;;;;;;;;;;;;;;;25.45;41.19;94697.47;5005479;28;9077;-59
2022/09/20 11:57:38;;;;;;;;;;;;;;;25.44;40.85;94693.25;5061909;28;7235;-60
2022/09/20 12:00:09;;;;;;;;;;;;;;;25.45;41.28;94689.22;5045489;28;7314;-59
2022/09/20 12:02:52;;;;;;;;;;;;;;;25.47;40.94;94689.47;5063635;28;9323;-60
2022/09/20 12:05:40;;;;;;;;;;;;;;;25.49;41.25;94684.22;5061287;28;7045;-60
2022/09/20 12:08:39;;;;;;;;;;;;;;;25.49;40.50;94686.97;5060558;28;9122;-59
2022/09/20 12:11:15;;;;;;;;;;;;;;;25.51;40.46;94690.00;4995940;28;8992;-59
2022/09/20 12:13:53;;;;;;;;;;;;;;;25.54;41.07;94683.47;5001729;28;9036;-60
2022/09/20 12:16:46;;;;;;;;;;;;;;;25.55;41.15;94679.47;4998099;28;9301;-60
2022/09/20 12:19:51;;;;;;;;;;;;;;;25.55;41.00;94673.19;4983555;28;7029;-59
2022/09/20 12:22:39;;;;;;;;;;;;;;;25.56;41.49;94680.94;4956237;28;7219;-59
2022/09/20 12:25:33;;;;;;;;;;;;;;;25.56;41.67;94677.44;4951251;28;8462;-60
2022/09/20 12:28:36;;;;;;;;;;;;;;;25.54;40.60;94677.19;4964110;28;9101;-59
2022/09/20 12:31:21;;;;;;;;;;;;;;;25.57;41.38;94676.97;4921814;29;8980;-58
2022/09/20 12:34:09;;;;;;;;;;;;;;;25.60;41.31;94670.41;4928261;29;9035;-60
2022/09/20 12:36:42;;;;;;;;;;;;;;;25.61;41.58;94668.41;4924968;29;7351;-60
2022/09/20 12:39:10;;;;;;;;;;;;;;;25.63;41.10;94671.41;4923597;29;9952;-60
2022/09/20 12:41:47;;;;;;;;;;;;;;;25.62;41.13;94667.91;4922053;29;7229;-60
2022/09/20 12:45:00;;;;;;;;;;;;;;;25.66;41.63;94673.19;4912084;29;7117;-60
2022/09/20 12:47:31;;;;;;;;;;;;;;;25.65;41.48;94674.41;4848441;29;7123;-60
2022/09/20 12:52:57;;;;;;;;;;;;;;;25.63;40.94;94674.19;4894363;29;9273;-59
2022/09/20 12:55:32;;;;;;;;;;;;;;;25.61;41.37;94669.19;4918751;29;7333;-59
2022/09/20 12:58:27;;;;;;;;;;;;;;;25.67;40.89;94675.41;4917250;28;7224;-59
2022/09/20 13:01:05;;;;;;;;;;;;;;;25.68;41.39;94665.16;4926810;29;9355;-60
2022/09/20 13:03:40;;;;;;;;;;;;;;;25.69;41.67;94667.41;4930162;28;7716;-60
2022/09/20 13:06:30;;;;;;;;;;;;;;;25.70;41.96;94663.41;4928851;29;8742;-60
2022/09/20 13:09:15;;;;;;;;;;;;;;;25.70;41.43;94668.91;4981726;28;7227;-59
2022/09/20 13:11:53;;;;;;;;;;;;;;;25.71;41.71;94653.13;4981639;28;7377;-60
2022/09/20 13:14:31;;;;;;;;;;;;;;;25.68;41.39;94652.13;4989460;28;9074;-59
2022/09/20 13:17:26;;;;;;;;;;;;;;;25.70;42.01;94655.13;4985326;28;7897;-59
2022/09/20 13:20:01;;;;;;;;;;;;;;;25.69;41.83;94650.13;4972442;28;7327;-59
2022/09/20 13:23:12;;;;;;;;;;;;;;;25.72;41.10;94657.38;4993062;28;8881;-59
2022/09/20 13:25:42;;;;;;;;;;;;;;;25.74;41.09;94647.34;5002456;28;7139;-60
2022/09/20 13:28:32;;;;;;;;;;;;;;;25.77;41.48;94646.34;4987341;28;9054;-59
2022/09/20 13:31:24;;;;;;;;;;;;;;;25.79;41.78;94652.13;4993954;28;8728;-60
2022/09/20 13:33:51;;;;;;;;;;;;;;;25.77;42.13;94651.88;4994734;28;7370;-60
2022/09/20 13:36:30;;;;;;;;;;;;;;;25.77;41.64;94638.09;5007007;28;7268;-60
2022/09/20 13:38:59;;;;;;;;;;;;;;;25.81;41.78;94646.84;5027654;28;7308;-60
2022/09/20 13:41:32;;;;;;;;;;;;;;;25.82;41.73;94640.06;5013963;28;8542;-59
2022/09/20 13:44:36;;;;;;;;;;;;;;;25.81;41.59;94646.84;4998148;28;9019;-59
2022/09/20 13:47:22;;;;;;;;;;;;;;;25.83;41.55;94644.31;4988556;28;7232;-59
2022/09/20 13:49:49;;;;;;;;;;;;;;;25.83;42.11;94638.06;4992974;28;9667;-59
2022/09/20 13:52:30;;;;;;;;;;;;;;;25.85;41.68;94639.06;5007121;28;7490;-59
2022/09/20 13:55:44;;;;;;;;;;;;;;;25.89;41.01;94636.78;5012436;28;7459;-59
2022/09/20 13:58:43;;;;;;;;;;;;;;;25.90;41.08;94643.78;4995938;28;7259;-59
2022/09/20 14:01:28;;;;;;;;;;;;;;;25.93;41.95;94637.25;4998487;28;9094;-59
2022/09/20 14:04:22;;;;;;;;;;;;;;;25.96;41.17;94641.03;5035189;28;7184;-59
2022/09/20 14:06:55;;;;;;;;;;;;;;;25.96;41.38;94647.28;5026773;28;7251;-59
2022/09/20 14:09:27;;;;;;;;;;;;;;;25.97;41.66;94634.22;5042604;28;7410;-59
2022/09/20 14:11:55;;;;;;;;;;;;;;;25.99;41.81;94629.72;5025277;28;7622;-59
2022/09/20 14:14:35;;;;;;;;;;;;;;;26.02;41.73;94622.44;5021345;28;7261;-59
2022/09/20 14:17:07;;;;;;;;;;;;;;;26.04;41.51;94626.19;5009510;28;9376;-59
2022/09/20 14:20:26;;;;;;;;;;;;;;;26.06;41.62;94628.44;5032680;28;7239;-59
2022/09/20 14:23:27;;;;;;;;;;;;;;;26.07;41.48;94630.72;4975223;28;7397;-60
2022/09/20 14:26:23;;;;;;;;;;;;;;;26.10;41.59;94631.69;4979806;28;9448;-59
2022/09/20 14:28:51;;;;;;;;;;;;;;;26.11;41.17;94630.47;4982277;28;7274;-60
2022/09/20 14:31:30;;;;;;;;;;;;;;;26.16;41.58;94635.94;4979171;28;7530;-60
2022/09/20 14:34:03;;;;;;;;;;;;;;;26.17;41.61;94640.19;4976199;28;9635;-60
2022/09/20 14:36:30;;;;;;;;;;;;;;;26.21;41.30;94630.94;4994409;28;7411;-59
2022/09/20 14:39:01;;;;;;;;;;;;;;;26.23;41.68;94636.69;4977258;28;7183;-59